sensor_id;sensor_type;location;lat;lon;timestamp;P1;durP1;ratioP1;P2;durP2;ratioP2
11447;SDS011;43755;49.736;8.734;2023-04-03T00:02:00;4.72;;;3.33;;
11447;SDS011;43755;49.736;8.734;2023-04-03T00:04:02;3.30;;;3.00;;
11447;SDS011;43755;49.736;8.734;2023-04-03T00:06:03;3.10;;;2.90;;
11447;SDS011;43755;49.736;8.734;2023-04-03T00:08:06;3.60;;;3.20;;
11447;SDS011;43755;49.736;8.734;2023-04-03T00:10:09;5.55;;;3.90;;
11447;SDS011;43755;49.736;8.734;2023-04-03T00:12:11;4.80;;;3.35;;
11447;SDS011;43755;49.736;8.734;2023-04-03T00:14:13;4.10;;;3.70;;
11447;SDS011;43755;49.736;8.734;2023-04-03T00:16:16;3.97;;;3.63;;
11447;SDS011;43755;49.736;8.734;2023-04-03T00:18:17;3.63;;;3.20;;
11447;SDS011;43755;49.736;8.734;2023-04-03T00:20:19;4.28;;;3.88;;
11447;SDS011;43755;49.736;8.734;2023-04-03T00:22:20;4.85;;;3.67;;
11447;SDS011;43755;49.736;8.734;2023-04-03T00:24:21;3.90;;;3.53;;
11447;SDS011;43755;49.736;8.734;2023-04-03T00:26:23;4.10;;;3.50;;
11447;SDS011;43755;49.736;8.734;2023-04-03T00:28:24;3.80;;;3.50;;
11447;SDS011;43755;49.736;8.734;2023-04-03T00:30:26;3.83;;;3.53;;
11447;SDS011;43755;49.736;8.734;2023-04-03T00:32:29;4.10;;;3.80;;
11447;SDS011;43755;49.736;8.734;2023-04-03T00:34:31;4.20;;;3.80;;
11447;SDS011;43755;49.736;8.734;2023-04-03T00:36:32;3.85;;;3.15;;
11447;SDS011;43755;49.736;8.734;2023-04-03T00:38:34;4.90;;;3.55;;
11447;SDS011;43755;49.736;8.734;2023-04-03T00:40:36;4.03;;;3.67;;
11447;SDS011;43755;49.736;8.734;2023-04-03T00:42:39;3.97;;;3.67;;
11447;SDS011;43755;49.736;8.734;2023-04-03T00:47:25;4.05;;;3.75;;
11447;SDS011;43755;49.736;8.734;2023-04-03T00:49:28;3.80;;;3.50;;
11447;SDS011;43755;49.736;8.734;2023-04-03T00:51:30;5.10;;;3.53;;
11447;SDS011;43755;49.736;8.734;2023-04-03T00:53:32;4.18;;;3.28;;
11447;SDS011;43755;49.736;8.734;2023-04-03T00:55:36;4.50;;;3.53;;
11447;SDS011;43755;49.736;8.734;2023-04-03T00:57:38;4.18;;;3.78;;
11447;SDS011;43755;49.736;8.734;2023-04-03T00:59:41;4.05;;;3.67;;
11447;SDS011;43755;49.736;8.734;2023-04-03T01:01:47;4.35;;;3.95;;
11447;SDS011;43755;49.736;8.734;2023-04-03T01:03:49;3.92;;;3.63;;
11447;SDS011;43755;49.736;8.734;2023-04-03T01:05:52;4.32;;;4.03;;
11447;SDS011;43755;49.736;8.734;2023-04-03T01:07:54;5.55;;;4.18;;
11447;SDS011;43755;49.736;8.734;2023-04-03T01:09:57;4.90;;;4.50;;
11447;SDS011;43755;49.736;8.734;2023-04-03T01:12:12;5.20;;;4.47;;
11447;SDS011;43755;49.736;8.734;2023-04-03T01:14:15;4.47;;;4.18;;
11447;SDS011;43755;49.736;8.734;2023-04-03T01:16:17;4.32;;;3.97;;
11447;SDS011;43755;49.736;8.734;2023-04-03T01:18:19;4.90;;;4.40;;
11447;SDS011;43755;49.736;8.734;2023-04-03T01:20:42;4.57;;;4.25;;
11447;SDS011;43755;49.736;8.734;2023-04-03T01:23:05;4.70;;;4.30;;
11447;SDS011;43755;49.736;8.734;2023-04-03T01:25:13;4.80;;;4.40;;
11447;SDS011;43755;49.736;8.734;2023-04-03T01:27:15;4.55;;;4.03;;
11447;SDS011;43755;49.736;8.734;2023-04-03T01:29:17;4.85;;;4.35;;
11447;SDS011;43755;49.736;8.734;2023-04-03T01:31:20;4.20;;;3.90;;
11447;SDS011;43755;49.736;8.734;2023-04-03T01:33:27;4.30;;;3.90;;
11447;SDS011;43755;49.736;8.734;2023-04-03T01:35:28;5.80;;;4.18;;
11447;SDS011;43755;49.736;8.734;2023-04-03T01:37:30;4.35;;;3.95;;
11447;SDS011;43755;49.736;8.734;2023-04-03T01:39:31;4.47;;;4.07;;
11447;SDS011;43755;49.736;8.734;2023-04-03T01:41:33;4.70;;;4.30;;
11447;SDS011;43755;49.736;8.734;2023-04-03T01:43:34;4.38;;;4.07;;
11447;SDS011;43755;49.736;8.734;2023-04-03T01:45:36;5.30;;;4.03;;
11447;SDS011;43755;49.736;8.734;2023-04-03T01:47:37;4.25;;;3.95;;
11447;SDS011;43755;49.736;8.734;2023-04-03T01:49:40;5.07;;;4.57;;
11447;SDS011;43755;49.736;8.734;2023-04-03T01:51:41;5.30;;;4.68;;
11447;SDS011;43755;49.736;8.734;2023-04-03T01:53:43;5.63;;;4.68;;
11447;SDS011;43755;49.736;8.734;2023-04-03T01:55:44;4.78;;;4.30;;
11447;SDS011;43755;49.736;8.734;2023-04-03T01:57:46;5.90;;;4.53;;
11447;SDS011;43755;49.736;8.734;2023-04-03T01:59:47;4.90;;;4.40;;
11447;SDS011;43755;49.736;8.734;2023-04-03T02:01:48;5.63;;;4.65;;
11447;SDS011;43755;49.736;8.734;2023-04-03T02:03:50;5.22;;;4.35;;
11447;SDS011;43755;49.736;8.734;2023-04-03T02:05:53;5.10;;;4.60;;
11447;SDS011;43755;49.736;8.734;2023-04-03T02:07:55;4.78;;;4.30;;
11447;SDS011;43755;49.736;8.734;2023-04-03T02:09:56;5.40;;;4.50;;
11447;SDS011;43755;49.736;8.734;2023-04-03T02:11:57;4.95;;;4.40;;
11447;SDS011;43755;49.736;8.734;2023-04-03T02:13:59;6.47;;;4.90;;
11447;SDS011;43755;49.736;8.734;2023-04-03T02:16:05;5.28;;;4.65;;
11447;SDS011;43755;49.736;8.734;2023-04-03T02:18:07;5.38;;;4.88;;
11447;SDS011;43755;49.736;8.734;2023-04-03T02:20:09;5.40;;;4.90;;
11447;SDS011;43755;49.736;8.734;2023-04-03T02:22:12;4.95;;;4.53;;
11447;SDS011;43755;49.736;8.734;2023-04-03T02:24:14;4.80;;;4.40;;
11447;SDS011;43755;49.736;8.734;2023-04-03T02:26:16;4.85;;;4.45;;
11447;SDS011;43755;49.736;8.734;2023-04-03T02:28:18;4.75;;;4.35;;
11447;SDS011;43755;49.736;8.734;2023-04-03T02:30:19;5.65;;;4.78;;
11447;SDS011;43755;49.736;8.734;2023-04-03T02:32:20;8.27;;;5.28;;
11447;SDS011;43755;49.736;8.734;2023-04-03T02:34:22;9.07;;;5.15;;
11447;SDS011;43755;49.736;8.734;2023-04-03T02:36:23;5.22;;;4.72;;
11447;SDS011;43755;49.736;8.734;2023-04-03T02:38:26;6.22;;;4.90;;
11447;SDS011;43755;49.736;8.734;2023-04-03T02:40:27;5.20;;;4.80;;
11447;SDS011;43755;49.736;8.734;2023-04-03T02:42:29;5.28;;;4.82;;
11447;SDS011;43755;49.736;8.734;2023-04-03T02:44:30;5.43;;;4.97;;
11447;SDS011;43755;49.736;8.734;2023-04-03T02:46:32;5.20;;;4.70;;
11447;SDS011;43755;49.736;8.734;2023-04-03T02:48:34;4.90;;;4.50;;
11447;SDS011;43755;49.736;8.734;2023-04-03T02:50:35;6.13;;;5.10;;
11447;SDS011;43755;49.736;8.734;2023-04-03T02:52:37;6.05;;;5.13;;
11447;SDS011;43755;49.736;8.734;2023-04-03T02:54:39;5.50;;;4.72;;
11447;SDS011;43755;49.736;8.734;2023-04-03T02:56:41;5.38;;;4.90;;
11447;SDS011;43755;49.736;8.734;2023-04-03T02:58:43;6.47;;;5.28;;
11447;SDS011;43755;49.736;8.734;2023-04-03T03:00:44;5.57;;;4.97;;
11447;SDS011;43755;49.736;8.734;2023-04-03T03:02:45;7.40;;;4.57;;
11447;SDS011;43755;49.736;8.734;2023-04-03T03:04:47;5.05;;;4.65;;
11447;SDS011;43755;49.736;8.734;2023-04-03T03:06:48;5.70;;;5.10;;
11447;SDS011;43755;49.736;8.734;2023-04-03T03:08:50;5.97;;;5.45;;
11447;SDS011;43755;49.736;8.734;2023-04-03T03:10:55;5.45;;;4.88;;
11447;SDS011;43755;49.736;8.734;2023-04-03T03:12:56;6.53;;;5.32;;
11447;SDS011;43755;49.736;8.734;2023-04-03T03:14:58;6.45;;;5.03;;
11447;SDS011;43755;49.736;8.734;2023-04-03T03:16:59;7.22;;;4.80;;
11447;SDS011;43755;49.736;8.734;2023-04-03T03:19:00;6.63;;;4.70;;
11447;SDS011;43755;49.736;8.734;2023-04-03T03:21:02;8.00;;;4.72;;
11447;SDS011;43755;49.736;8.734;2023-04-03T03:23:04;6.47;;;5.20;;
11447;SDS011;43755;49.736;8.734;2023-04-03T03:25:06;5.30;;;4.90;;
11447;SDS011;43755;49.736;8.734;2023-04-03T03:27:09;6.03;;;4.60;;
11447;SDS011;43755;49.736;8.734;2023-04-03T03:29:12;5.30;;;4.80;;
11447;SDS011;43755;49.736;8.734;2023-04-03T03:31:13;6.25;;;5.20;;
11447;SDS011;43755;49.736;8.734;2023-04-03T03:33:15;5.40;;;4.90;;
11447;SDS011;43755;49.736;8.734;2023-04-03T03:35:17;6.65;;;5.20;;
11447;SDS011;43755;49.736;8.734;2023-04-03T03:37:18;6.45;;;5.30;;
11447;SDS011;43755;49.736;8.734;2023-04-03T03:39:20;6.43;;;5.18;;
11447;SDS011;43755;49.736;8.734;2023-04-03T03:41:21;6.30;;;5.60;;
11447;SDS011;43755;49.736;8.734;2023-04-03T03:43:24;5.53;;;5.00;;
11447;SDS011;43755;49.736;8.734;2023-04-03T03:45:25;7.50;;;5.10;;
11447;SDS011;43755;49.736;8.734;2023-04-03T03:47:27;5.88;;;5.10;;
11447;SDS011;43755;49.736;8.734;2023-04-03T03:49:28;6.03;;;5.45;;
11447;SDS011;43755;49.736;8.734;2023-04-03T03:51:30;6.53;;;5.03;;
11447;SDS011;43755;49.736;8.734;2023-04-03T03:53:31;8.02;;;5.55;;
11447;SDS011;43755;49.736;8.734;2023-04-03T03:55:33;5.47;;;5.03;;
11447;SDS011;43755;49.736;8.734;2023-04-03T03:57:34;13.30;;;5.47;;
11447;SDS011;43755;49.736;8.734;2023-04-03T03:59:37;10.70;;;5.20;;
11447;SDS011;43755;49.736;8.734;2023-04-03T04:01:40;8.80;;;5.30;;
11447;SDS011;43755;49.736;8.734;2023-04-03T04:03:42;7.15;;;5.53;;
11447;SDS011;43755;49.736;8.734;2023-04-03T04:05:43;6.55;;;5.18;;
11447;SDS011;43755;49.736;8.734;2023-04-03T04:07:45;5.82;;;5.30;;
11447;SDS011;43755;49.736;8.734;2023-04-03T04:09:46;9.60;;;5.90;;
11447;SDS011;43755;49.736;8.734;2023-04-03T04:11:48;8.20;;;5.85;;
11447;SDS011;43755;49.736;8.734;2023-04-03T04:13:49;7.68;;;5.43;;
11447;SDS011;43755;49.736;8.734;2023-04-03T04:15:52;6.25;;;5.55;;
11447;SDS011;43755;49.736;8.734;2023-04-03T04:17:53;6.28;;;5.25;;
11447;SDS011;43755;49.736;8.734;2023-04-03T04:19:55;6.40;;;5.30;;
11447;SDS011;43755;49.736;8.734;2023-04-03T04:21:56;6.20;;;4.90;;
11447;SDS011;43755;49.736;8.734;2023-04-03T04:23:58;7.13;;;5.38;;
11447;SDS011;43755;49.736;8.734;2023-04-03T04:25:59;7.53;;;5.20;;
11447;SDS011;43755;49.736;8.734;2023-04-03T04:28:00;6.40;;;5.70;;
11447;SDS011;43755;49.736;8.734;2023-04-03T04:30:02;7.00;;;5.32;;
11447;SDS011;43755;49.736;8.734;2023-04-03T04:32:05;5.40;;;4.88;;
11447;SDS011;43755;49.736;8.734;2023-04-03T04:34:08;8.55;;;5.28;;
11447;SDS011;43755;49.736;8.734;2023-04-03T04:36:10;5.32;;;4.65;;
11447;SDS011;43755;49.736;8.734;2023-04-03T04:38:11;5.88;;;5.28;;
11447;SDS011;43755;49.736;8.734;2023-04-03T04:40:13;7.63;;;5.70;;
11447;SDS011;43755;49.736;8.734;2023-04-03T04:42:14;8.25;;;5.70;;
11447;SDS011;43755;49.736;8.734;2023-04-03T04:44:16;7.30;;;5.80;;
11447;SDS011;43755;49.736;8.734;2023-04-03T04:46:18;6.75;;;6.03;;
11447;SDS011;43755;49.736;8.734;2023-04-03T04:48:21;15.07;;;6.28;;
11447;SDS011;43755;49.736;8.734;2023-04-03T04:50:22;10.45;;;7.07;;
11447;SDS011;43755;49.736;8.734;2023-04-03T04:52:24;10.13;;;8.07;;
11447;SDS011;43755;49.736;8.734;2023-04-03T04:54:25;11.60;;;10.07;;
11447;SDS011;43755;49.736;8.734;2023-04-03T04:56:27;13.68;;;9.77;;
11447;SDS011;43755;49.736;8.734;2023-04-03T04:58:28;10.80;;;8.30;;
11447;SDS011;43755;49.736;8.734;2023-04-03T05:00:29;9.40;;;7.43;;
11447;SDS011;43755;49.736;8.734;2023-04-03T05:02:31;8.35;;;6.53;;
11447;SDS011;43755;49.736;8.734;2023-04-03T05:04:34;9.85;;;6.90;;
11447;SDS011;43755;49.736;8.734;2023-04-03T05:06:35;9.68;;;6.38;;
11447;SDS011;43755;49.736;8.734;2023-04-03T05:08:37;10.25;;;7.18;;
11447;SDS011;43755;49.736;8.734;2023-04-03T05:10:39;9.63;;;7.50;;
11447;SDS011;43755;49.736;8.734;2023-04-03T05:12:42;8.45;;;6.50;;
11447;SDS011;43755;49.736;8.734;2023-04-03T05:14:43;10.05;;;7.47;;
11447;SDS011;43755;49.736;8.734;2023-04-03T05:16:45;10.05;;;6.97;;
11447;SDS011;43755;49.736;8.734;2023-04-03T05:18:47;9.18;;;7.10;;
11447;SDS011;43755;49.736;8.734;2023-04-03T05:20:50;9.13;;;7.32;;
11447;SDS011;43755;49.736;8.734;2023-04-03T05:22:51;11.10;;;8.15;;
11447;SDS011;43755;49.736;8.734;2023-04-03T05:24:53;13.55;;;9.05;;
11447;SDS011;43755;49.736;8.734;2023-04-03T05:26:54;12.88;;;8.50;;
11447;SDS011;43755;49.736;8.734;2023-04-03T05:28:55;12.18;;;8.63;;
11447;SDS011;43755;49.736;8.734;2023-04-03T05:30:57;11.20;;;8.95;;
11447;SDS011;43755;49.736;8.734;2023-04-03T05:32:59;11.15;;;10.05;;
11447;SDS011;43755;49.736;8.734;2023-04-03T05:35:01;9.48;;;8.30;;
11447;SDS011;43755;49.736;8.734;2023-04-03T05:37:03;11.00;;;8.65;;
11447;SDS011;43755;49.736;8.734;2023-04-03T05:39:05;10.90;;;9.20;;
11447;SDS011;43755;49.736;8.734;2023-04-03T05:41:06;11.55;;;9.27;;
11447;SDS011;43755;49.736;8.734;2023-04-03T05:43:08;12.18;;;9.07;;
11447;SDS011;43755;49.736;8.734;2023-04-03T05:45:10;10.43;;;8.02;;
11447;SDS011;43755;49.736;8.734;2023-04-03T05:47:12;11.90;;;7.32;;
11447;SDS011;43755;49.736;8.734;2023-04-03T05:49:13;17.00;;;7.07;;
11447;SDS011;43755;49.736;8.734;2023-04-03T05:51:16;11.35;;;6.90;;
11447;SDS011;43755;49.736;8.734;2023-04-03T05:53:21;8.02;;;5.93;;
11447;SDS011;43755;49.736;8.734;2023-04-03T05:55:24;8.50;;;5.90;;
11447;SDS011;43755;49.736;8.734;2023-04-03T05:57:26;6.32;;;5.60;;
11447;SDS011;43755;49.736;8.734;2023-04-03T05:59:27;8.75;;;5.90;;
11447;SDS011;43755;49.736;8.734;2023-04-03T06:01:29;9.35;;;6.15;;
11447;SDS011;43755;49.736;8.734;2023-04-03T06:03:30;7.07;;;5.43;;
11447;SDS011;43755;49.736;8.734;2023-04-03T06:05:32;10.23;;;6.63;;
11447;SDS011;43755;49.736;8.734;2023-04-03T06:07:34;9.93;;;6.28;;
11447;SDS011;43755;49.736;8.734;2023-04-03T06:09:37;11.25;;;6.30;;
11447;SDS011;43755;49.736;8.734;2023-04-03T06:11:38;11.70;;;6.63;;
11447;SDS011;43755;49.736;8.734;2023-04-03T06:13:40;7.35;;;6.20;;
11447;SDS011;43755;49.736;8.734;2023-04-03T06:15:41;8.70;;;6.10;;
11447;SDS011;43755;49.736;8.734;2023-04-03T06:17:43;13.55;;;6.38;;
11447;SDS011;43755;49.736;8.734;2023-04-03T06:19:45;6.47;;;5.88;;
11447;SDS011;43755;49.736;8.734;2023-04-03T06:21:46;8.02;;;6.07;;
11447;SDS011;43755;49.736;8.734;2023-04-03T06:23:48;7.60;;;6.15;;
11447;SDS011;43755;49.736;8.734;2023-04-03T06:25:50;9.77;;;5.72;;
11447;SDS011;43755;49.736;8.734;2023-04-03T06:27:52;8.85;;;5.68;;
11447;SDS011;43755;49.736;8.734;2023-04-03T06:29:55;13.00;;;5.63;;
11447;SDS011;43755;49.736;8.734;2023-04-03T06:31:56;7.20;;;4.95;;
11447;SDS011;43755;49.736;8.734;2023-04-03T06:33:58;8.25;;;5.57;;
11447;SDS011;43755;49.736;8.734;2023-04-03T06:36:02;7.93;;;5.88;;
11447;SDS011;43755;49.736;8.734;2023-04-03T06:38:05;8.65;;;6.03;;
11447;SDS011;43755;49.736;8.734;2023-04-03T06:40:11;6.07;;;5.43;;
11447;SDS011;43755;49.736;8.734;2023-04-03T06:42:20;13.82;;;5.57;;
11447;SDS011;43755;49.736;8.734;2023-04-03T06:44:22;8.48;;;4.80;;
11447;SDS011;43755;49.736;8.734;2023-04-03T06:46:23;5.88;;;4.70;;
11447;SDS011;43755;49.736;8.734;2023-04-03T06:48:25;6.45;;;4.35;;
11447;SDS011;43755;49.736;8.734;2023-04-03T06:50:27;6.50;;;4.35;;
11447;SDS011;43755;49.736;8.734;2023-04-03T06:52:28;5.40;;;4.00;;
11447;SDS011;43755;49.736;8.734;2023-04-03T06:54:29;6.68;;;4.28;;
11447;SDS011;43755;49.736;8.734;2023-04-03T06:56:31;4.97;;;4.05;;
11447;SDS011;43755;49.736;8.734;2023-04-03T06:58:34;5.35;;;3.80;;
11447;SDS011;43755;49.736;8.734;2023-04-03T07:00:36;4.60;;;3.60;;
11447;SDS011;43755;49.736;8.734;2023-04-03T07:02:37;7.88;;;4.05;;
11447;SDS011;43755;49.736;8.734;2023-04-03T07:04:38;7.28;;;3.85;;
11447;SDS011;43755;49.736;8.734;2023-04-03T07:06:40;6.93;;;3.97;;
11447;SDS011;43755;49.736;8.734;2023-04-03T07:08:42;5.63;;;3.40;;
11447;SDS011;43755;49.736;8.734;2023-04-03T07:10:44;4.72;;;3.70;;
11447;SDS011;43755;49.736;8.734;2023-04-03T07:12:46;4.90;;;3.50;;
11447;SDS011;43755;49.736;8.734;2023-04-03T07:14:49;3.97;;;3.58;;
11447;SDS011;43755;49.736;8.734;2023-04-03T07:16:50;5.25;;;3.70;;
11447;SDS011;43755;49.736;8.734;2023-04-03T07:18:51;8.68;;;3.97;;
11447;SDS011;43755;49.736;8.734;2023-04-03T07:20:53;4.25;;;3.72;;
11447;SDS011;43755;49.736;8.734;2023-04-03T07:22:54;5.22;;;3.97;;
11447;SDS011;43755;49.736;8.734;2023-04-03T07:24:56;5.75;;;3.58;;
11447;SDS011;43755;49.736;8.734;2023-04-03T07:26:58;5.28;;;3.83;;
11447;SDS011;43755;49.736;8.734;2023-04-03T07:29:00;4.05;;;3.28;;
11447;SDS011;43755;49.736;8.734;2023-04-03T07:31:04;3.30;;;3.00;;
11447;SDS011;43755;49.736;8.734;2023-04-03T07:33:08;5.28;;;2.55;;
11447;SDS011;43755;49.736;8.734;2023-04-03T07:35:09;5.07;;;2.33;;
11447;SDS011;43755;49.736;8.734;2023-04-03T07:37:12;3.65;;;2.53;;
11447;SDS011;43755;49.736;8.734;2023-04-03T07:39:14;4.45;;;2.25;;
11447;SDS011;43755;49.736;8.734;2023-04-03T07:41:16;4.07;;;2.33;;
11447;SDS011;43755;49.736;8.734;2023-04-03T07:43:21;4.35;;;2.20;;
11447;SDS011;43755;49.736;8.734;2023-04-03T07:45:24;5.18;;;2.17;;
11447;SDS011;43755;49.736;8.734;2023-04-03T07:47:27;3.95;;;1.80;;
11447;SDS011;43755;49.736;8.734;2023-04-03T07:49:31;3.80;;;2.47;;
11447;SDS011;43755;49.736;8.734;2023-04-03T07:51:33;4.38;;;2.03;;
11447;SDS011;43755;49.736;8.734;2023-04-03T07:53:34;2.58;;;2.00;;
11447;SDS011;43755;49.736;8.734;2023-04-03T07:55:36;2.72;;;1.90;;
11447;SDS011;43755;49.736;8.734;2023-04-03T07:57:42;13.90;;;2.95;;
11447;SDS011;43755;49.736;8.734;2023-04-03T07:59:44;3.03;;;1.98;;
11447;SDS011;43755;49.736;8.734;2023-04-03T08:01:45;2.38;;;1.83;;
11447;SDS011;43755;49.736;8.734;2023-04-03T08:03:48;2.78;;;1.80;;
11447;SDS011;43755;49.736;8.734;2023-04-03T08:05:50;3.65;;;1.80;;
11447;SDS011;43755;49.736;8.734;2023-04-03T08:07:53;4.10;;;2.00;;
11447;SDS011;43755;49.736;8.734;2023-04-03T08:09:55;3.00;;;2.08;;
11447;SDS011;43755;49.736;8.734;2023-04-03T08:11:57;2.97;;;1.83;;
11447;SDS011;43755;49.736;8.734;2023-04-03T08:13:58;2.22;;;1.77;;
11447;SDS011;43755;49.736;8.734;2023-04-03T08:16:06;4.10;;;2.00;;
11447;SDS011;43755;49.736;8.734;2023-04-03T08:18:09;4.47;;;2.05;;
11447;SDS011;43755;49.736;8.734;2023-04-03T08:20:12;4.25;;;1.80;;
11447;SDS011;43755;49.736;8.734;2023-04-03T08:22:13;3.22;;;1.40;;
11447;SDS011;43755;49.736;8.734;2023-04-03T08:24:15;3.28;;;1.90;;
11447;SDS011;43755;49.736;8.734;2023-04-03T08:26:17;3.67;;;1.77;;
11447;SDS011;43755;49.736;8.734;2023-04-03T08:28:21;2.67;;;1.75;;
11447;SDS011;43755;49.736;8.734;2023-04-03T08:30:22;2.72;;;1.63;;
11447;SDS011;43755;49.736;8.734;2023-04-03T08:32:24;3.67;;;1.60;;
11447;SDS011;43755;49.736;8.734;2023-04-03T08:34:25;2.22;;;1.55;;
11447;SDS011;43755;49.736;8.734;2023-04-03T08:36:28;3.15;;;1.60;;
11447;SDS011;43755;49.736;8.734;2023-04-03T08:38:30;1.77;;;1.30;;
11447;SDS011;43755;49.736;8.734;2023-04-03T08:40:32;2.35;;;1.45;;
11447;SDS011;43755;49.736;8.734;2023-04-03T08:42:40;1.33;;;1.20;;
11447;SDS011;43755;49.736;8.734;2023-04-03T08:44:51;3.40;;;1.60;;
11447;SDS011;43755;49.736;8.734;2023-04-03T08:47:04;14.88;;;2.47;;
11447;SDS011;43755;49.736;8.734;2023-04-03T08:49:21;3.97;;;1.77;;
11447;SDS011;43755;49.736;8.734;2023-04-03T08:51:28;3.60;;;1.58;;
11447;SDS011;43755;49.736;8.734;2023-04-03T08:53:32;3.00;;;1.75;;
11447;SDS011;43755;49.736;8.734;2023-04-03T08:55:39;2.03;;;1.52;;
11447;SDS011;43755;49.736;8.734;2023-04-03T08:57:44;2.78;;;1.50;;
11447;SDS011;43755;49.736;8.734;2023-04-03T08:59:48;1.98;;;1.40;;
11447;SDS011;43755;49.736;8.734;2023-04-03T09:01:50;2.17;;;1.65;;
11447;SDS011;43755;49.736;8.734;2023-04-03T09:03:53;3.45;;;1.65;;
11447;SDS011;43755;49.736;8.734;2023-04-03T09:05:55;3.22;;;1.50;;
11447;SDS011;43755;49.736;8.734;2023-04-03T09:08:03;4.38;;;1.30;;
11447;SDS011;43755;49.736;8.734;2023-04-03T09:10:08;2.65;;;1.48;;
11447;SDS011;43755;49.736;8.734;2023-04-03T09:12:15;4.03;;;1.75;;
11447;SDS011;43755;49.736;8.734;2023-04-03T09:14:22;2.20;;;1.48;;
11447;SDS011;43755;49.736;8.734;2023-04-03T09:16:33;1.98;;;1.60;;
11447;SDS011;43755;49.736;8.734;2023-04-03T09:18:39;2.15;;;1.60;;
11447;SDS011;43755;49.736;8.734;2023-04-03T09:20:48;1.75;;;1.17;;
11447;SDS011;43755;49.736;8.734;2023-04-03T09:22:55;3.25;;;1.35;;
11447;SDS011;43755;49.736;8.734;2023-04-03T09:24:58;2.67;;;1.48;;
11447;SDS011;43755;49.736;8.734;2023-04-03T09:27:03;1.98;;;1.40;;
11447;SDS011;43755;49.736;8.734;2023-04-03T09:29:08;2.88;;;1.40;;
11447;SDS011;43755;49.736;8.734;2023-04-03T09:31:14;3.20;;;1.30;;
11447;SDS011;43755;49.736;8.734;2023-04-03T09:33:20;3.47;;;1.60;;
11447;SDS011;43755;49.736;8.734;2023-04-03T09:35:24;1.40;;;1.30;;
11447;SDS011;43755;49.736;8.734;2023-04-03T09:37:34;2.58;;;1.73;;
11447;SDS011;43755;49.736;8.734;2023-04-03T09:39:48;2.03;;;1.30;;
11447;SDS011;43755;49.736;8.734;2023-04-03T09:42:00;2.72;;;1.45;;
11447;SDS011;43755;49.736;8.734;2023-04-03T09:44:02;3.58;;;1.40;;
11447;SDS011;43755;49.736;8.734;2023-04-03T09:48:26;3.38;;;1.60;;
11447;SDS011;43755;49.736;8.734;2023-04-03T09:50:28;1.42;;;1.20;;
11447;SDS011;43755;49.736;8.734;2023-04-03T09:52:29;1.77;;;1.27;;
11447;SDS011;43755;49.736;8.734;2023-04-03T09:54:33;1.27;;;1.27;;
11447;SDS011;43755;49.736;8.734;2023-04-03T09:56:37;1.77;;;1.33;;
11447;SDS011;43755;49.736;8.734;2023-04-03T09:58:40;2.88;;;1.50;;
11447;SDS011;43755;49.736;8.734;2023-04-03T10:00:44;2.35;;;1.25;;
11447;SDS011;43755;49.736;8.734;2023-04-03T10:02:55;3.03;;;1.65;;
11447;SDS011;43755;49.736;8.734;2023-04-03T10:04:58;2.08;;;1.50;;
11447;SDS011;43755;49.736;8.734;2023-04-03T10:06:59;2.28;;;1.48;;
11447;SDS011;43755;49.736;8.734;2023-04-03T10:09:02;3.17;;;1.33;;
11447;SDS011;43755;49.736;8.734;2023-04-03T10:11:10;1.30;;;1.20;;
11447;SDS011;43755;49.736;8.734;2023-04-03T10:13:14;1.52;;;1.23;;
11447;SDS011;43755;49.736;8.734;2023-04-03T10:15:20;1.88;;;1.27;;
11447;SDS011;43755;49.736;8.734;2023-04-03T10:17:22;2.63;;;1.30;;
11447;SDS011;43755;49.736;8.734;2023-04-03T10:19:36;1.33;;;1.23;;
11447;SDS011;43755;49.736;8.734;2023-04-03T10:21:44;5.93;;;1.60;;
11447;SDS011;43755;49.736;8.734;2023-04-03T10:23:49;3.05;;;1.40;;
11447;SDS011;43755;49.736;8.734;2023-04-03T10:25:59;2.35;;;1.40;;
11447;SDS011;43755;49.736;8.734;2023-04-03T10:28:12;1.98;;;1.20;;
11447;SDS011;43755;49.736;8.734;2023-04-03T10:30:24;1.67;;;1.10;;
11447;SDS011;43755;49.736;8.734;2023-04-03T10:32:42;4.00;;;1.25;;
11447;SDS011;43755;49.736;8.734;2023-04-03T10:34:52;2.13;;;1.20;;
11447;SDS011;43755;49.736;8.734;2023-04-03T10:37:01;2.30;;;1.48;;
11447;SDS011;43755;49.736;8.734;2023-04-03T10:39:15;2.90;;;1.58;;
11447;SDS011;43755;49.736;8.734;2023-04-03T10:41:28;3.13;;;1.50;;
11447;SDS011;43755;49.736;8.734;2023-04-03T10:43:42;2.20;;;1.55;;
11447;SDS011;43755;49.736;8.734;2023-04-03T10:45:55;2.25;;;1.30;;
11447;SDS011;43755;49.736;8.734;2023-04-03T10:48:02;3.72;;;1.60;;
11447;SDS011;43755;49.736;8.734;2023-04-03T10:50:20;1.40;;;1.30;;
11447;SDS011;43755;49.736;8.734;2023-04-03T10:52:30;3.63;;;1.23;;
11447;SDS011;43755;49.736;8.734;2023-04-03T10:54:39;2.28;;;1.40;;
11447;SDS011;43755;49.736;8.734;2023-04-03T10:56:47;1.30;;;1.20;;
11447;SDS011;43755;49.736;8.734;2023-04-03T10:58:50;2.80;;;1.30;;
11447;SDS011;43755;49.736;8.734;2023-04-03T11:00:59;2.75;;;1.65;;
11447;SDS011;43755;49.736;8.734;2023-04-03T11:03:05;3.67;;;1.50;;
11447;SDS011;43755;49.736;8.734;2023-04-03T11:05:13;3.92;;;1.33;;
11447;SDS011;43755;49.736;8.734;2023-04-03T11:07:19;1.67;;;1.38;;
11447;SDS011;43755;49.736;8.734;2023-04-03T11:09:24;1.50;;;1.30;;
11447;SDS011;43755;49.736;8.734;2023-04-03T11:11:29;4.00;;;1.10;;
11447;SDS011;43755;49.736;8.734;2023-04-03T11:13:34;3.05;;;1.50;;
11447;SDS011;43755;49.736;8.734;2023-04-03T11:15:39;2.53;;;1.60;;
11447;SDS011;43755;49.736;8.734;2023-04-03T11:17:45;1.95;;;1.42;;
11447;SDS011;43755;49.736;8.734;2023-04-03T11:19:57;2.53;;;1.30;;
11447;SDS011;43755;49.736;8.734;2023-04-03T11:22:03;2.03;;;1.40;;
11447;SDS011;43755;49.736;8.734;2023-04-03T11:24:11;3.90;;;1.92;;
11447;SDS011;43755;49.736;8.734;2023-04-03T11:26:22;4.70;;;1.70;;
11447;SDS011;43755;49.736;8.734;2023-04-03T11:28:26;2.00;;;1.70;;
11447;SDS011;43755;49.736;8.734;2023-04-03T11:30:28;2.15;;;1.30;;
11447;SDS011;43755;49.736;8.734;2023-04-03T11:32:40;2.47;;;1.50;;
11447;SDS011;43755;49.736;8.734;2023-04-03T11:34:56;1.40;;;1.20;;
11447;SDS011;43755;49.736;8.734;2023-04-03T11:37:00;1.80;;;1.60;;
11447;SDS011;43755;49.736;8.734;2023-04-03T11:39:07;2.20;;;1.70;;
11447;SDS011;43755;49.736;8.734;2023-04-03T11:41:16;2.08;;;1.50;;
11447;SDS011;43755;49.736;8.734;2023-04-03T11:43:25;2.25;;;1.50;;
11447;SDS011;43755;49.736;8.734;2023-04-03T11:45:32;1.55;;;1.35;;
11447;SDS011;43755;49.736;8.734;2023-04-03T11:47:43;1.60;;;1.38;;
11447;SDS011;43755;49.736;8.734;2023-04-03T11:49:54;3.65;;;1.33;;
11447;SDS011;43755;49.736;8.734;2023-04-03T11:51:58;2.22;;;1.67;;
11447;SDS011;43755;49.736;8.734;2023-04-03T11:54:09;1.63;;;1.48;;
11447;SDS011;43755;49.736;8.734;2023-04-03T11:56:43;1.63;;;1.35;;
11447;SDS011;43755;49.736;8.734;2023-04-03T11:58:46;3.35;;;1.50;;
11447;SDS011;43755;49.736;8.734;2023-04-03T12:01:43;2.13;;;1.55;;
11447;SDS011;43755;49.736;8.734;2023-04-03T12:03:57;3.10;;;1.42;;
11447;SDS011;43755;49.736;8.734;2023-04-03T12:08:45;3.03;;;1.60;;
11447;SDS011;43755;49.736;8.734;2023-04-03T12:13:24;2.78;;;1.50;;
11447;SDS011;43755;49.736;8.734;2023-04-03T12:15:41;2.25;;;1.48;;
11447;SDS011;43755;49.736;8.734;2023-04-03T12:17:49;1.50;;;1.40;;
11447;SDS011;43755;49.736;8.734;2023-04-03T12:19:52;2.65;;;1.80;;
11447;SDS011;43755;49.736;8.734;2023-04-03T12:22:13;2.42;;;1.60;;
11447;SDS011;43755;49.736;8.734;2023-04-03T12:24:27;4.78;;;1.52;;
11447;SDS011;43755;49.736;8.734;2023-04-03T12:26:31;1.75;;;1.30;;
11447;SDS011;43755;49.736;8.734;2023-04-03T12:28:37;1.45;;;1.35;;
11447;SDS011;43755;49.736;8.734;2023-04-03T12:30:40;1.33;;;1.23;;
11447;SDS011;43755;49.736;8.734;2023-04-03T12:32:46;2.50;;;1.40;;
11447;SDS011;43755;49.736;8.734;2023-04-03T12:35:02;3.28;;;1.67;;
11447;SDS011;43755;49.736;8.734;2023-04-03T12:37:17;2.10;;;1.50;;